Terminal Aerodrome Forecast
Issued by NWS Sterling, VA

Current Version | Previous Version | Graphics & Text | Print | Product List | Glossary On
Versions: 1 2 3 4 5 6 7 8 9 10 11 12 13 14 15 16 17 18 19 20 21 22 23 24 25
862
FTUS41 KLWX 292046 AAA
TAFIAD
TAF AMD
KIAD 292046Z 2921/3024 VRB04KT 6SM -DZ BR OVC015
     FM300200 07005KT 3SM -DZ BR BKN008 OVC015
     FM301200 07005KT 3SM BR BKN010
     FM301500 08005KT P6SM BKN015
     FM301800 13006KT P6SM OVC025=

USA.gov is the U.S. government's official web portal to all federal, state and local government web resources and services.